createdAt,value
2022-08-24T00:00:26.051Z,98700.25
2022-08-24T00:02:52.984Z,98714.63
2022-08-24T00:05:22.469Z,98695.38
2022-08-24T00:07:50.353Z,98685.53
2022-08-24T00:10:19.110Z,98686.56
2022-08-24T00:12:45.952Z,98677.16
2022-08-24T00:15:14.593Z,98665.25
2022-08-24T00:17:41.476Z,98661.00
2022-08-24T00:20:10.407Z,98663.16
2022-08-24T00:22:37.873Z,98662.59
2022-08-24T00:25:05.627Z,98679.84
2022-08-24T00:27:32.668Z,98647.25
2022-08-24T00:29:59.418Z,98638.34
2022-08-24T00:32:26.154Z,98646.59
2022-08-24T00:34:58.976Z,98648.75
2022-08-24T00:37:28.769Z,98638.16
2022-08-24T00:39:56.292Z,98641.34
2022-08-24T00:42:24.398Z,98634.81
2022-08-24T00:44:52.012Z,98633.38
2022-08-24T00:47:33.329Z,98636.38
2022-08-24T00:50:06.084Z,98653.72
2022-08-24T00:52:56.657Z,98645.56
2022-08-24T00:55:31.004Z,98648.53
2022-08-24T00:58:03.407Z,98653.41
2022-08-24T01:00:35.130Z,98646.06
2022-08-24T01:03:05.426Z,98635.75
2022-08-24T01:05:34.147Z,98658.41
2022-08-24T01:08:02.290Z,98641.13
2022-08-24T01:10:32.860Z,98622.19
2022-08-24T01:13:03.803Z,98647.06
2022-08-24T01:15:33.284Z,98640.41
2022-08-24T01:18:20.188Z,98633.19
2022-08-24T01:20:57.204Z,98651.78
2022-08-24T01:23:36.992Z,98653.38
2022-08-24T01:26:05.024Z,98640.13
2022-08-24T01:28:32.168Z,98642.22
2022-08-24T01:30:59.699Z,98641.91
2022-08-24T01:33:29.655Z,98634.38
2022-08-24T01:36:03.561Z,98634.53
2022-08-24T01:38:30.360Z,98655.31
2022-08-24T01:41:02.155Z,98657.41
2022-08-24T01:43:29.027Z,98645.72
2022-08-24T01:45:57.384Z,98649.59
2022-08-24T01:48:28.315Z,98635.22
2022-08-24T01:50:55.376Z,98621.50
2022-08-24T01:53:22.336Z,98617.50
2022-08-24T01:55:49.098Z,98612.44
2022-08-24T01:58:16.087Z,98607.66
2022-08-24T02:00:44.780Z,98592.13
2022-08-24T02:03:11.571Z,98606.53
2022-08-24T02:05:38.253Z,98593.75
2022-08-24T02:08:05.312Z,98572.22
2022-08-24T02:10:32.760Z,98560.06
2022-08-24T02:12:59.842Z,98559.97
2022-08-24T02:15:34.463Z,98563.78
2022-08-24T02:18:01.113Z,98635.22
2022-08-24T02:20:29.211Z,98639.88
2022-08-24T02:22:57.153Z,98629.19
2022-08-24T02:25:24.858Z,98618.31
2022-08-24T02:27:51.743Z,98624.56
2022-08-24T02:30:19.019Z,98633.69
2022-08-24T02:32:46.080Z,98639.88
2022-08-24T02:35:15.216Z,98639.72
2022-08-24T02:37:43.643Z,98634.94
2022-08-24T02:40:12.621Z,98622.81
2022-08-24T02:42:39.805Z,98613.53
2022-08-24T02:45:07.367Z,98640.81
2022-08-24T02:47:38.515Z,98638.94
2022-08-24T02:50:10.027Z,98643.41
2022-08-24T02:52:41.424Z,98637.50
2022-08-24T02:55:12.033Z,98644.66
2022-08-24T02:57:40.639Z,98640.69
2022-08-24T03:00:11.916Z,98625.84
2022-08-24T03:02:42.345Z,98614.19
2022-08-24T03:05:10.372Z,98611.16
2022-08-24T03:07:37.549Z,98665.38
2022-08-24T03:10:06.538Z,98657.72
2022-08-24T03:12:35.031Z,98656.13
2022-08-24T03:15:02.537Z,98665.22
2022-08-24T03:17:33.815Z,98659.31
2022-08-24T03:20:02.234Z,98675.72
2022-08-24T03:22:28.982Z,98689.59
2022-08-24T03:24:55.681Z,98675.28
2022-08-24T03:27:22.849Z,98675.28
2022-08-24T03:29:49.947Z,98676.06
2022-08-24T03:32:17.036Z,98660.78
2022-08-24T03:34:43.873Z,98669.06
2022-08-24T03:37:11.891Z,98678.91
2022-08-24T03:39:39.365Z,98676.69
2022-08-24T03:42:06.748Z,98664.25
2022-08-24T03:44:33.660Z,98657.25
2022-08-24T03:47:01.747Z,98681.78
2022-08-24T03:49:29.211Z,98674.44
2022-08-24T03:51:55.925Z,98680.34
2022-08-24T03:54:22.636Z,98677.19
2022-08-24T03:56:49.336Z,98672.25
2022-08-24T03:59:19.844Z,98664.59
2022-08-24T04:01:46.864Z,98652.63
2022-08-24T04:04:13.556Z,98661.88
2022-08-24T04:06:46.578Z,98678.28
2022-08-24T04:09:14.137Z,98677.66
2022-08-24T04:11:41.695Z,98670.63
2022-08-24T04:14:08.873Z,98676.06
2022-08-24T04:16:57.626Z,98675.72
2022-08-24T04:19:25.296Z,98673.03
2022-08-24T04:21:51.955Z,98678.63
2022-08-24T04:24:19.737Z,98680.34
2022-08-24T04:26:46.677Z,98676.38
2022-08-24T04:29:15.022Z,98674.13
2022-08-24T04:31:45.699Z,98678.28
2022-08-24T04:34:14.825Z,98680.97
2022-08-24T04:36:43.208Z,98677.34
2022-08-24T04:39:10.109Z,98681.16
2022-08-24T04:41:36.958Z,98679.56
2022-08-24T04:44:04.309Z,98665.38
2022-08-24T04:46:31.278Z,98651.50
2022-08-24T04:48:58.875Z,98643.84
2022-08-24T04:51:26.998Z,98645.13
2022-08-24T04:53:57.226Z,98640.66
2022-08-24T04:56:25.165Z,98637.16
2022-08-24T04:58:58.124Z,98639.06
2022-08-24T05:01:30.477Z,98630.72
2022-08-24T05:03:59.288Z,98628.47
2022-08-24T05:06:31.753Z,98626.25
2022-08-24T05:08:59.012Z,98609.88
2022-08-24T05:11:27.177Z,98601.44
2022-08-24T05:13:55.784Z,98589.03
2022-08-24T05:16:23.915Z,98578.19
2022-08-24T05:18:52.232Z,98560.59
2022-08-24T05:21:22.379Z,98547.66
2022-08-24T05:23:49.324Z,98547.75
2022-08-24T05:26:26.026Z,98540.31
2022-08-24T05:28:58.060Z,98522.25
2022-08-24T05:31:29.961Z,98517.84
2022-08-24T05:33:56.834Z,98516.41
2022-08-24T05:36:32.184Z,98504.66
2022-08-24T05:39:01.680Z,98496.66
2022-08-24T05:41:29.076Z,98477.97
2022-08-24T05:43:55.892Z,98478.66
2022-08-24T05:46:22.867Z,98470.94
2022-08-24T05:48:53.185Z,98469.13
2022-08-24T05:51:21.534Z,98466.75
2022-08-24T05:53:48.416Z,98455.47
2022-08-24T05:56:18.184Z,98456.81
2022-08-24T05:58:45.415Z,98452.84
2022-08-24T06:01:22.893Z,98445.09
2022-08-24T06:03:50.964Z,98440.91
2022-08-24T06:06:21.832Z,98444.50
2022-08-24T06:08:51.880Z,98440.78
2022-08-24T06:11:29.947Z,98438.50
2022-08-24T06:14:01.209Z,98435.03
2022-08-24T06:16:28.534Z,98435.00
2022-08-24T06:18:55.296Z,98443.56
2022-08-24T06:21:24.961Z,98442.44
2022-08-24T06:23:55.779Z,98430.38
2022-08-24T06:26:41.211Z,98435.75
2022-08-24T06:29:09.039Z,98441.53
2022-08-24T06:31:43.083Z,98444.25
2022-08-24T06:34:15.200Z,98437.97
2022-08-24T06:36:42.109Z,98435.13
2022-08-24T06:39:10.226Z,98437.09
2022-08-24T06:41:38.167Z,98443.75
2022-08-24T06:44:05.895Z,98456.47
2022-08-24T06:46:33.245Z,98470.72
2022-08-24T06:49:01.036Z,98478.13
2022-08-24T06:51:28.677Z,98480.41
2022-08-24T06:54:01.280Z,98495.06
2022-08-24T06:56:30.504Z,98505.00
2022-08-24T06:58:59.416Z,98505.53
2022-08-24T07:01:28.428Z,98507.50
2022-08-24T07:03:58.280Z,98519.50
2022-08-24T07:06:25.756Z,98526.47
2022-08-24T07:08:54.026Z,98542.75
2022-08-24T07:11:22.083Z,98553.03
2022-08-24T07:13:49.740Z,98565.69
2022-08-24T07:16:18.977Z,98577.59
2022-08-24T07:18:49.881Z,98623.09
2022-08-24T07:21:19.977Z,98640.28
2022-08-24T07:23:48.569Z,98630.88
2022-08-24T07:26:23.307Z,98638.28
2022-08-24T07:28:58.639Z,98674.50
2022-08-24T07:31:25.553Z,98708.47
2022-08-24T07:33:54.560Z,98739.31
2022-08-24T07:36:23.223Z,98778.00
2022-08-24T07:38:54.215Z,98813.47
2022-08-24T07:41:51.283Z,98854.03
2022-08-24T07:44:10.125Z,98909.88
2022-08-24T07:46:37.937Z,98944.97
2022-08-24T07:49:12.817Z,98974.56
2022-08-24T07:51:53.547Z,98998.31
2022-08-24T07:54:21.125Z,99027.84
2022-08-24T07:56:48.899Z,99028.88
2022-08-24T07:59:15.758Z,99051.38
2022-08-24T08:01:43.034Z,99068.28
2022-08-24T08:04:12.908Z,99080.16
2022-08-24T08:06:41.068Z,99099.13
2022-08-24T08:09:07.742Z,99127.53
2022-08-24T08:11:35.225Z,99131.25
2022-08-24T08:14:01.868Z,99147.56
2022-08-24T08:16:28.553Z,99167.72
2022-08-24T08:19:11.202Z,99185.56
2022-08-24T08:22:10.576Z,99205.69
2022-08-24T08:24:39.893Z,99219.53
2022-08-24T08:27:06.808Z,99233.41
2022-08-24T08:29:38.619Z,99262.25
2022-08-24T08:32:05.641Z,99269.50
2022-08-24T08:34:32.875Z,99297.09
2022-08-24T08:37:00.108Z,99318.41
2022-08-24T08:39:27.611Z,99353.03
2022-08-24T08:42:15.199Z,99372.53
2022-08-24T08:44:52.884Z,99380.28
2022-08-24T08:47:45.443Z,99359.19
2022-08-24T08:50:40.488Z,99397.22
2022-08-24T08:53:25.543Z,99417.81
2022-08-24T08:56:09.667Z,99427.81
2022-08-24T08:58:59.335Z,99477.13
2022-08-24T09:02:16.120Z,99530.06
2022-08-24T09:05:07.965Z,99561.91
2022-08-24T09:07:59.850Z,99593.59
2022-08-24T09:10:39.525Z,99584.91
2022-08-24T09:13:36.801Z,99580.47
2022-08-24T09:16:12.412Z,99582.31
2022-08-24T09:18:57.756Z,99601.34
2022-08-24T09:21:43.040Z,99628.13
2022-08-24T09:24:09.725Z,99663.00
2022-08-24T09:26:36.896Z,99677.44
2022-08-24T09:29:18.972Z,99685.97
2022-08-24T09:32:16.381Z,99679.75
2022-08-24T09:35:11.712Z,99685.69
2022-08-24T09:38:12.911Z,99676.19
2022-08-24T09:41:04.237Z,99695.66
2022-08-24T09:44:04.497Z,99706.34
2022-08-24T09:46:43.003Z,99736.25
2022-08-24T09:49:47.476Z,99767.81
2022-08-24T09:52:40.872Z,99796.31
2022-08-24T09:55:26.843Z,99814.88
2022-08-24T09:58:08.591Z,99828.00
2022-08-24T10:00:46.432Z,99832.72
2022-08-24T10:03:37.990Z,99833.97
2022-08-24T10:06:23.820Z,99842.69
2022-08-24T10:08:59.965Z,99850.16
2022-08-24T10:11:59.269Z,99858.84
2022-08-24T10:14:40.152Z,99865.91
2022-08-24T10:17:12.523Z,99860.84
2022-08-24T10:20:02.817Z,99867.66
2022-08-24T10:22:51.012Z,99866.16
2022-08-24T10:25:39.104Z,99863.03
2022-08-24T10:28:34.287Z,99879.63
2022-08-24T10:31:13.076Z,99877.81
2022-08-24T10:33:51.597Z,99879.06
2022-08-24T10:36:29.491Z,99883.03
2022-08-24T10:39:20.487Z,99884.50
2022-08-24T10:42:32.816Z,99873.44
2022-08-24T10:45:31.437Z,99861.50
2022-08-24T10:48:26.168Z,99848.16
2022-08-24T10:51:30.312Z,99856.94
2022-08-24T10:53:58.923Z,99876.28
2022-08-24T10:57:07.301Z,99889.44
2022-08-24T11:00:01.627Z,99881.19
2022-08-24T11:02:28.785Z,99888.81
2022-08-24T11:04:57.721Z,99886.50
2022-08-24T11:07:24.543Z,99883.34
2022-08-24T11:10:00.300Z,99907.03
2022-08-24T11:12:36.744Z,99887.22
2022-08-24T11:15:28.064Z,99875.44
2022-08-24T11:18:00.770Z,99854.16
2022-08-24T11:20:31.949Z,99854.19
2022-08-24T11:23:05.312Z,99871.66
2022-08-24T11:25:34.971Z,99864.22
2022-08-24T11:28:20.228Z,99858.25
2022-08-24T11:30:46.929Z,99845.16
2022-08-24T11:33:35.114Z,99825.81
2022-08-24T11:36:03.020Z,99803.97
2022-08-24T11:38:34.505Z,99791.84
2022-08-24T11:41:32.664Z,99822.81
2022-08-24T11:44:10.003Z,99846.28
2022-08-24T11:46:48.438Z,99846.00
2022-08-24T11:49:29.291Z,99875.41
2022-08-24T11:52:16.208Z,99891.00
2022-08-24T11:55:05.258Z,99900.16
2022-08-24T11:57:47.735Z,99911.31
2022-08-24T12:00:19.510Z,99917.66
2022-08-24T12:03:00.574Z,99936.31
2022-08-24T12:06:06.012Z,99934.72
2022-08-24T12:08:41.368Z,99919.97
2022-08-24T12:11:39.744Z,99927.06
2022-08-24T12:14:25.976Z,99930.16
2022-08-24T12:17:32.952Z,99933.28
2022-08-24T12:20:14.117Z,99937.97
2022-08-24T12:22:42.600Z,99942.72
2022-08-24T12:25:31.295Z,99931.22
2022-08-24T12:28:00.912Z,99911.06
2022-08-24T12:30:28.044Z,99892.50
2022-08-24T12:33:06.988Z,99876.31
2022-08-24T12:35:45.872Z,99856.16
2022-08-24T12:38:21.691Z,99846.34
2022-08-24T12:41:03.402Z,99856.31
2022-08-24T12:43:52.011Z,99876.63
2022-08-24T12:46:23.434Z,99893.28
2022-08-24T12:49:03.469Z,99924.19
2022-08-24T12:51:39.115Z,99936.88
2022-08-24T12:54:33.218Z,99934.22
2022-08-24T12:57:15.592Z,99948.88
2022-08-24T12:59:50.457Z,99969.50
2022-08-24T13:02:17.151Z,99966.09
2022-08-24T13:04:49.703Z,99957.50
2022-08-24T13:07:19.056Z,99981.75
2022-08-24T13:10:06.749Z,99996.81
2022-08-24T13:12:39.238Z,99987.81
2022-08-24T13:15:24.333Z,99985.88
2022-08-24T13:18:13.961Z,99985.16
2022-08-24T13:20:43.731Z,99966.84
2022-08-24T13:23:13.970Z,99975.69
2022-08-24T13:25:55.842Z,99983.28
2022-08-24T13:28:25.480Z,99987.34
2022-08-24T13:31:11.079Z,99996.50
2022-08-24T13:33:41.026Z,99994.06
2022-08-24T13:36:07.907Z,99996.53
2022-08-24T13:38:34.568Z,99999.00
2022-08-24T13:41:34.111Z,100011.28
2022-08-24T13:44:27.797Z,100018.50
2022-08-24T13:47:18.612Z,100027.66
2022-08-24T13:50:21.632Z,100041.19
2022-08-24T13:53:13.664Z,100045.63
2022-08-24T13:55:53.653Z,100064.28
2022-08-24T13:58:33.089Z,100076.94
2022-08-24T14:01:18.878Z,100080.53
2022-08-24T14:04:12.484Z,100106.72
2022-08-24T14:07:00.256Z,100112.59
2022-08-24T14:10:08.222Z,100110.22
2022-08-24T14:13:13.357Z,100099.22
2022-08-24T14:16:15.411Z,100093.00
2022-08-24T14:18:54.316Z,100103.31
2022-08-24T14:21:33.943Z,100097.78
2022-08-24T14:24:36.400Z,100108.09
2022-08-24T14:27:05.999Z,100102.16
2022-08-24T14:29:41.876Z,100101.81
2022-08-24T14:32:12.669Z,100099.06
2022-08-24T14:35:24.480Z,100095.50
2022-08-24T14:37:56.150Z,100104.69
2022-08-24T14:40:38.119Z,100118.59
2022-08-24T14:43:30.054Z,100102.72
2022-08-24T14:46:35.936Z,100102.84
2022-08-24T14:49:03.252Z,100105.25
2022-08-24T14:51:48.144Z,100093.75
2022-08-24T14:54:42.221Z,100111.63
2022-08-24T14:57:40.766Z,100112.81
2022-08-24T15:00:22.364Z,100122.75
2022-08-24T15:03:08.304Z,100136.28
2022-08-24T15:05:35.149Z,100139.00
2022-08-24T15:08:27.019Z,100153.69
2022-08-24T15:11:02.781Z,100163.25
2022-08-24T15:13:38.100Z,100168.41
2022-08-24T15:16:10.942Z,100167.22
2022-08-24T15:19:08.926Z,100176.81
2022-08-24T15:22:04.614Z,100170.44
2022-08-24T15:25:00.837Z,100168.84
2022-08-24T15:27:57.530Z,100170.88
2022-08-24T15:30:29.571Z,100175.66
2022-08-24T15:33:10.724Z,100177.66
2022-08-24T15:35:43.690Z,100178.47
2022-08-24T15:38:22.540Z,100176.13
2022-08-24T15:40:54.059Z,100180.88
2022-08-24T15:43:21.345Z,100175.31
2022-08-24T15:45:51.784Z,100180.09
2022-08-24T15:48:24.589Z,100181.69
2022-08-24T15:50:56.103Z,100187.66
2022-08-24T15:53:39.251Z,100181.72
2022-08-24T15:56:20.934Z,100179.31
2022-08-24T15:58:49.111Z,100180.91
2022-08-24T16:01:34.429Z,100184.09
2022-08-24T16:04:04.970Z,100185.69
2022-08-24T16:06:31.523Z,100184.91
2022-08-24T16:09:08.967Z,100188.88
2022-08-24T16:11:47.918Z,100194.44
2022-08-24T16:14:23.292Z,100190.06
2022-08-24T16:16:50.241Z,100192.06
2022-08-24T16:19:28.056Z,100192.84
2022-08-24T16:22:03.297Z,100198.44
2022-08-24T16:24:36.488Z,100192.84
2022-08-24T16:27:15.757Z,100198.41
2022-08-24T16:29:45.706Z,100203.16
2022-08-24T16:32:33.662Z,100199.97
2022-08-24T16:35:21.440Z,100203.53
2022-08-24T16:37:48.280Z,100203.13
2022-08-24T16:40:15.754Z,100203.53
2022-08-24T16:42:42.721Z,100205.94
2022-08-24T16:45:12.660Z,100203.94
2022-08-24T16:47:39.930Z,100203.94
2022-08-24T16:50:07.825Z,100204.72
2022-08-24T16:52:34.514Z,100211.09
2022-08-24T16:55:01.683Z,100215.09
2022-08-24T16:57:31.064Z,100209.53
2022-08-24T16:59:58.747Z,100215.84
2022-08-24T17:02:28.652Z,100219.81
2022-08-24T17:04:56.256Z,100216.66
2022-08-24T17:07:28.605Z,100219.78
2022-08-24T17:09:56.691Z,100212.59
2022-08-24T17:12:24.156Z,100198.25
2022-08-24T17:14:50.865Z,100188.59
2022-08-24T17:17:22.985Z,100184.56
2022-08-24T17:19:53.186Z,100171.78
2022-08-24T17:22:20.543Z,100163.00
2022-08-24T17:24:47.515Z,100157.25
2022-08-24T17:27:14.613Z,100133.25
2022-08-24T17:29:43.576Z,100114.81
2022-08-24T17:32:10.728Z,100110.94
2022-08-24T17:34:37.532Z,100099.31
2022-08-24T17:37:04.651Z,100094.50
2022-08-24T17:39:34.181Z,100082.06
2022-08-24T17:42:01.836Z,100071.44
2022-08-24T17:44:32.104Z,100054.84
2022-08-24T17:47:02.547Z,100033.09
2022-08-24T17:49:31.495Z,100012.63
2022-08-24T17:51:59.056Z,100019.06
2022-08-24T17:54:28.080Z,100012.47
2022-08-24T17:56:55.765Z,100006.47
2022-08-24T17:59:28.789Z,99990.06
2022-08-24T18:02:01.960Z,99965.16
2022-08-24T18:04:33.523Z,99945.16
2022-08-24T18:07:03.451Z,99925.03
2022-08-24T18:09:37.445Z,99913.59
2022-08-24T18:12:08.705Z,99902.53
2022-08-24T18:14:35.928Z,99892.69
2022-08-24T18:17:06.739Z,99882.44
2022-08-24T18:19:34.667Z,99867.28
2022-08-24T18:22:02.074Z,99847.13
2022-08-24T18:24:37.836Z,99833.41
2022-08-24T18:27:13.724Z,99830.13
2022-08-24T18:29:43.384Z,99826.78
2022-08-24T18:32:14.139Z,99820.06
2022-08-24T18:34:41.601Z,99819.72
2022-08-24T18:37:08.673Z,99817.53
2022-08-24T18:39:35.591Z,99792.09
2022-08-24T18:42:06.168Z,99770.06
2022-08-24T18:44:32.877Z,99764.84
2022-08-24T18:47:00.363Z,99760.03
2022-08-24T18:49:28.517Z,99762.63
2022-08-24T18:51:55.704Z,99765.09
2022-08-24T18:54:26.049Z,99758.06
2022-08-24T18:56:52.940Z,99752.72
2022-08-24T18:59:21.530Z,99743.53
2022-08-24T19:02:09.699Z,99732.53
2022-08-24T19:04:42.489Z,99735.31
2022-08-24T19:07:09.252Z,99718.66
2022-08-24T19:09:35.947Z,99705.84
2022-08-24T19:12:04.334Z,99700.84
2022-08-24T19:14:32.071Z,99687.41
2022-08-24T19:16:58.879Z,99674.81
2022-08-24T19:19:25.793Z,99682.59
2022-08-24T19:21:53.634Z,99668.47
2022-08-24T19:24:25.193Z,99666.63
2022-08-24T19:26:52.476Z,99654.53
2022-08-24T19:29:38.882Z,99619.75
2022-08-24T19:32:10.145Z,99601.25
2022-08-24T19:34:43.188Z,99595.31
2022-08-24T19:37:10.039Z,99589.69
2022-08-24T19:39:36.705Z,99580.72
2022-08-24T19:42:04.349Z,99574.09
2022-08-24T19:44:51.673Z,99568.63
2022-08-24T19:47:19.767Z,99571.81
2022-08-24T19:49:48.144Z,99562.59
2022-08-24T19:52:15.164Z,99552.31
2022-08-24T19:54:44.663Z,99552.66
2022-08-24T19:57:48.304Z,99535.31
2022-08-24T20:00:24.844Z,99534.81
2022-08-24T20:02:54.150Z,99536.00
2022-08-24T20:05:23.073Z,99528.34
2022-08-24T20:07:50.206Z,99540.97
2022-08-24T20:10:20.535Z,99534.78
2022-08-24T20:12:47.305Z,99524.38
2022-08-24T20:15:14.082Z,99510.13
2022-08-24T20:17:40.988Z,99508.97
2022-08-24T20:20:09.392Z,99495.97
2022-08-24T20:22:36.052Z,99503.63
2022-08-24T20:25:03.655Z,99497.09
2022-08-24T20:27:31.325Z,99495.69
2022-08-24T20:29:59.484Z,99496.59
2022-08-24T20:32:27.967Z,99497.94
2022-08-24T20:34:54.728Z,99489.28
2022-08-24T20:37:24.676Z,99494.19
2022-08-24T20:39:53.600Z,99482.66
2022-08-24T20:42:21.455Z,99483.19
2022-08-24T20:44:49.616Z,99485.34
2022-08-24T20:47:17.009Z,99476.09
2022-08-24T20:49:44.756Z,99462.28
2022-08-24T20:52:11.697Z,99459.75
2022-08-24T20:54:40.025Z,99456.56
2022-08-24T20:57:11.501Z,99465.13
2022-08-24T20:59:38.115Z,99457.44
2022-08-24T21:02:05.484Z,99463.78
2022-08-24T21:04:32.299Z,99455.09
2022-08-24T21:06:59.172Z,99455.91
2022-08-24T21:09:26.245Z,99446.91
2022-08-24T21:11:52.860Z,99461.94
2022-08-24T21:14:22.128Z,99459.41
2022-08-24T21:16:48.992Z,99470.16
2022-08-24T21:19:18.685Z,99471.63
2022-08-24T21:21:47.213Z,99471.84
2022-08-24T21:24:15.559Z,99470.28
2022-08-24T21:26:42.609Z,99475.59
2022-08-24T21:29:10.563Z,99477.28
2022-08-24T21:31:37.935Z,99476.66
2022-08-24T21:34:24.339Z,99478.47
2022-08-24T21:36:52.570Z,99479.31
2022-08-24T21:39:19.751Z,99477.72
2022-08-24T21:41:46.651Z,99463.59
2022-08-24T21:44:13.454Z,99468.59
2022-08-24T21:46:40.921Z,99454.47
2022-08-24T21:49:12.294Z,99436.66
2022-08-24T21:51:39.817Z,99434.88
2022-08-24T21:54:06.531Z,99437.59
2022-08-24T21:56:34.491Z,99434.41
2022-08-24T21:59:01.387Z,99438.00
2022-08-24T22:01:28.968Z,99430.13
2022-08-24T22:03:56.317Z,99423.88
2022-08-24T22:06:29.129Z,99420.03
2022-08-24T22:09:00.075Z,99415.22
2022-08-24T22:11:26.978Z,99416.34
2022-08-24T22:13:56.611Z,99417.00
2022-08-24T22:16:24.955Z,99417.97
2022-08-24T22:18:51.743Z,99421.44
2022-08-24T22:21:22.159Z,99421.59
2022-08-24T22:23:49.581Z,99411.16
2022-08-24T22:26:16.593Z,99419.84
2022-08-24T22:28:43.400Z,99420.97
2022-08-24T22:31:27.351Z,99417.94
2022-08-24T22:33:56.189Z,99431.09
2022-08-24T22:36:25.971Z,99431.47
2022-08-24T22:38:54.794Z,99434.84
2022-08-24T22:41:24.338Z,99433.25
2022-08-24T22:44:11.773Z,99442.88
2022-08-24T22:46:39.383Z,99437.94
2022-08-24T22:49:08.735Z,99430.41
2022-08-24T22:51:36.180Z,99423.84
2022-08-24T22:54:03.193Z,99422.88
2022-08-24T22:56:36.964Z,99423.53
2022-08-24T22:59:05.208Z,99417.72
2022-08-24T23:01:35.836Z,99410.22
2022-08-24T23:04:05.397Z,99397.25
2022-08-24T23:06:34.736Z,99399.97
2022-08-24T23:09:01.799Z,99396.94
2022-08-24T23:11:28.620Z,99400.31
2022-08-24T23:13:57.767Z,99414.78
2022-08-24T23:16:26.671Z,99412.53
2022-08-24T23:19:12.812Z,99411.72
2022-08-24T23:21:40.321Z,99415.28
2022-08-24T23:24:07.952Z,99404.50
2022-08-24T23:26:35.784Z,99396.50
2022-08-24T23:29:03.864Z,99393.13
2022-08-24T23:31:31.615Z,99389.91
2022-08-24T23:33:58.987Z,99391.22
2022-08-24T23:36:27.832Z,99379.38
2022-08-24T23:38:57.572Z,99378.06
2022-08-24T23:41:27.290Z,99374.38
2022-08-24T23:43:55.297Z,99386.72
2022-08-24T23:46:22.775Z,99396.66
2022-08-24T23:48:55.030Z,99389.97
2022-08-24T23:51:22.728Z,99389.63
2022-08-24T23:53:50.427Z,99392.38
2022-08-24T23:56:25.964Z,99388.34
2022-08-24T23:58:53.231Z,99394.16
